sensor_id;sensor_type;location;lat;lon;timestamp;temperature;humidity
2621;DHT22;1320;48.128;11.592;2022-09-12T00:00:12;14.30;99.90
2621;DHT22;1320;48.128;11.592;2022-09-12T00:02:40;14.30;99.90
2621;DHT22;1320;48.128;11.592;2022-09-12T00:05:06;14.30;99.90
2621;DHT22;1320;48.128;11.592;2022-09-12T00:07:32;14.30;99.90
2621;DHT22;1320;48.128;11.592;2022-09-12T00:09:58;14.30;99.90
2621;DHT22;1320;48.128;11.592;2022-09-12T00:12:24;14.20;99.90
2621;DHT22;1320;48.128;11.592;2022-09-12T00:14:50;14.20;99.90
2621;DHT22;1320;48.128;11.592;2022-09-12T00:17:15;14.10;99.90
2621;DHT22;1320;48.128;11.592;2022-09-12T00:19:41;14.10;99.90
2621;DHT22;1320;48.128;11.592;2022-09-12T00:22:07;14.10;99.90
2621;DHT22;1320;48.128;11.592;2022-09-12T00:24:32;14.00;99.90
2621;DHT22;1320;48.128;11.592;2022-09-12T00:26:58;14.00;99.90
2621;DHT22;1320;48.128;11.592;2022-09-12T00:29:24;13.90;99.90
2621;DHT22;1320;48.128;11.592;2022-09-12T00:31:50;13.90;99.90
2621;DHT22;1320;48.128;11.592;2022-09-12T00:34:15;13.90;99.90
2621;DHT22;1320;48.128;11.592;2022-09-12T00:36:41;13.90;99.90
2621;DHT22;1320;48.128;11.592;2022-09-12T00:39:07;13.90;99.90
2621;DHT22;1320;48.128;11.592;2022-09-12T00:41:38;13.90;99.90
2621;DHT22;1320;48.128;11.592;2022-09-12T00:46:51;13.90;99.90
2621;DHT22;1320;48.128;11.592;2022-09-12T00:52:40;13.80;99.90
2621;DHT22;1320;48.128;11.592;2022-09-12T00:55:21;13.80;99.90
2621;DHT22;1320;48.128;11.592;2022-09-12T00:57:53;13.80;99.90
2621;DHT22;1320;48.128;11.592;2022-09-12T01:00:22;13.80;99.90
2621;DHT22;1320;48.128;11.592;2022-09-12T01:02:52;13.70;99.90
2621;DHT22;1320;48.128;11.592;2022-09-12T01:05:20;13.70;99.90
2621;DHT22;1320;48.128;11.592;2022-09-12T01:07:46;13.70;99.90
2621;DHT22;1320;48.128;11.592;2022-09-12T01:10:15;13.70;99.90
2621;DHT22;1320;48.128;11.592;2022-09-12T01:12:42;13.70;99.90
2621;DHT22;1320;48.128;11.592;2022-09-12T01:15:09;13.70;99.90
2621;DHT22;1320;48.128;11.592;2022-09-12T01:17:55;13.70;99.90
2621;DHT22;1320;48.128;11.592;2022-09-12T01:20:41;13.70;99.90
2621;DHT22;1320;48.128;11.592;2022-09-12T01:35:13;13.60;99.90
2621;DHT22;1320;48.128;11.592;2022-09-12T01:37:42;13.60;99.90
2621;DHT22;1320;48.128;11.592;2022-09-12T01:40:33;13.50;99.90
2621;DHT22;1320;48.128;11.592;2022-09-12T01:43:22;13.50;99.90
2621;DHT22;1320;48.128;11.592;2022-09-12T01:46:05;13.50;99.90
2621;DHT22;1320;48.128;11.592;2022-09-12T01:51:22;13.60;99.90
2621;DHT22;1320;48.128;11.592;2022-09-12T01:53:56;13.60;99.90
2621;DHT22;1320;48.128;11.592;2022-09-12T01:56:29;13.50;99.90
2621;DHT22;1320;48.128;11.592;2022-09-12T01:59:02;13.60;99.90
2621;DHT22;1320;48.128;11.592;2022-09-12T02:01:44;13.50;99.90
2621;DHT22;1320;48.128;11.592;2022-09-12T02:04:23;13.50;99.90
2621;DHT22;1320;48.128;11.592;2022-09-12T02:12:39;13.50;99.90
2621;DHT22;1320;48.128;11.592;2022-09-12T02:15:07;13.50;99.90
2621;DHT22;1320;48.128;11.592;2022-09-12T02:17:37;13.50;99.90
2621;DHT22;1320;48.128;11.592;2022-09-12T02:20:18;13.50;99.90
2621;DHT22;1320;48.128;11.592;2022-09-12T02:22:46;13.40;99.90
2621;DHT22;1320;48.128;11.592;2022-09-12T02:25:16;13.40;99.90
2621;DHT22;1320;48.128;11.592;2022-09-12T02:27:58;13.40;99.90
2621;DHT22;1320;48.128;11.592;2022-09-12T02:30:28;13.30;99.90
2621;DHT22;1320;48.128;11.592;2022-09-12T02:33:10;13.30;99.90
2621;DHT22;1320;48.128;11.592;2022-09-12T02:35:50;13.30;99.90
2621;DHT22;1320;48.128;11.592;2022-09-12T02:38:42;13.30;99.90
2621;DHT22;1320;48.128;11.592;2022-09-12T02:41:09;13.20;99.90
2621;DHT22;1320;48.128;11.592;2022-09-12T02:43:35;13.20;99.90
2621;DHT22;1320;48.128;11.592;2022-09-12T02:46:04;13.20;99.90
2621;DHT22;1320;48.128;11.592;2022-09-12T02:48:33;13.20;99.90
2621;DHT22;1320;48.128;11.592;2022-09-12T02:51:02;13.20;99.90
2621;DHT22;1320;48.128;11.592;2022-09-12T02:53:28;13.20;99.90
2621;DHT22;1320;48.128;11.592;2022-09-12T02:55:53;13.10;99.90
2621;DHT22;1320;48.128;11.592;2022-09-12T02:58:23;13.10;99.90
2621;DHT22;1320;48.128;11.592;2022-09-12T03:22:23;12.80;99.90
2621;DHT22;1320;48.128;11.592;2022-09-12T03:27:39;12.80;99.90
2621;DHT22;1320;48.128;11.592;2022-09-12T03:30:07;12.80;99.90
2621;DHT22;1320;48.128;11.592;2022-09-12T03:32:48;12.80;99.90
2621;DHT22;1320;48.128;11.592;2022-09-12T03:35:19;12.80;99.90
2621;DHT22;1320;48.128;11.592;2022-09-12T03:37:46;12.80;99.90
2621;DHT22;1320;48.128;11.592;2022-09-12T03:40:12;12.80;99.90
2621;DHT22;1320;48.128;11.592;2022-09-12T03:42:38;12.80;99.90
2621;DHT22;1320;48.128;11.592;2022-09-12T03:45:05;12.70;99.90
2621;DHT22;1320;48.128;11.592;2022-09-12T03:47:31;12.70;99.90
2621;DHT22;1320;48.128;11.592;2022-09-12T03:49:56;12.70;99.90
2621;DHT22;1320;48.128;11.592;2022-09-12T03:52:22;12.70;99.90
2621;DHT22;1320;48.128;11.592;2022-09-12T03:54:48;12.70;99.90
2621;DHT22;1320;48.128;11.592;2022-09-12T03:57:14;12.60;99.90
2621;DHT22;1320;48.128;11.592;2022-09-12T03:59:39;12.70;99.90
2621;DHT22;1320;48.128;11.592;2022-09-12T04:02:05;12.70;99.90
2621;DHT22;1320;48.128;11.592;2022-09-12T04:04:31;12.60;99.90
2621;DHT22;1320;48.128;11.592;2022-09-12T04:06:57;12.70;99.90
2621;DHT22;1320;48.128;11.592;2022-09-12T04:09:23;12.70;99.90
2621;DHT22;1320;48.128;11.592;2022-09-12T04:11:49;12.70;99.90
2621;DHT22;1320;48.128;11.592;2022-09-12T04:14:14;12.70;99.90
2621;DHT22;1320;48.128;11.592;2022-09-12T04:16:40;12.70;99.90
2621;DHT22;1320;48.128;11.592;2022-09-12T04:19:06;12.70;99.90
2621;DHT22;1320;48.128;11.592;2022-09-12T04:21:31;12.70;99.90
2621;DHT22;1320;48.128;11.592;2022-09-12T04:23:58;12.70;99.90
2621;DHT22;1320;48.128;11.592;2022-09-12T04:26:23;12.70;99.90
2621;DHT22;1320;48.128;11.592;2022-09-12T04:28:52;12.70;99.90
2621;DHT22;1320;48.128;11.592;2022-09-12T04:31:19;12.70;99.90
2621;DHT22;1320;48.128;11.592;2022-09-12T04:33:53;12.70;99.90
2621;DHT22;1320;48.128;11.592;2022-09-12T04:36:19;12.70;99.90
2621;DHT22;1320;48.128;11.592;2022-09-12T04:38:46;12.70;99.90
2621;DHT22;1320;48.128;11.592;2022-09-12T04:41:13;12.60;99.90
2621;DHT22;1320;48.128;11.592;2022-09-12T04:43:40;12.60;99.90
2621;DHT22;1320;48.128;11.592;2022-09-12T04:46:10;12.60;99.90
2621;DHT22;1320;48.128;11.592;2022-09-12T04:48:36;12.60;99.90
2621;DHT22;1320;48.128;11.592;2022-09-12T04:51:17;12.50;99.90
2621;DHT22;1320;48.128;11.592;2022-09-12T04:53:47;12.50;99.90
2621;DHT22;1320;48.128;11.592;2022-09-12T04:56:13;12.50;99.90
2621;DHT22;1320;48.128;11.592;2022-09-12T04:58:38;12.50;99.90
2621;DHT22;1320;48.128;11.592;2022-09-12T05:01:08;12.50;99.90
2621;DHT22;1320;48.128;11.592;2022-09-12T05:03:34;12.50;99.90
2621;DHT22;1320;48.128;11.592;2022-09-12T05:06:04;12.50;99.90
2621;DHT22;1320;48.128;11.592;2022-09-12T05:08:29;12.50;99.90
2621;DHT22;1320;48.128;11.592;2022-09-12T05:10:55;12.50;99.90
2621;DHT22;1320;48.128;11.592;2022-09-12T05:13:21;12.50;99.90
2621;DHT22;1320;48.128;11.592;2022-09-12T05:15:57;12.50;99.90
2621;DHT22;1320;48.128;11.592;2022-09-12T05:18:23;12.50;99.90
2621;DHT22;1320;48.128;11.592;2022-09-12T05:20:51;12.50;99.90
2621;DHT22;1320;48.128;11.592;2022-09-12T05:23:17;12.50;99.90
2621;DHT22;1320;48.128;11.592;2022-09-12T05:25:53;12.50;99.90
2621;DHT22;1320;48.128;11.592;2022-09-12T05:28:20;12.50;99.90
2621;DHT22;1320;48.128;11.592;2022-09-12T05:30:46;12.60;99.90
2621;DHT22;1320;48.128;11.592;2022-09-12T05:33:13;12.60;99.90
2621;DHT22;1320;48.128;11.592;2022-09-12T05:35:39;12.60;99.90
2621;DHT22;1320;48.128;11.592;2022-09-12T05:38:06;12.60;99.90
2621;DHT22;1320;48.128;11.592;2022-09-12T05:40:33;12.60;99.90
2621;DHT22;1320;48.128;11.592;2022-09-12T05:42:59;12.60;99.90
2621;DHT22;1320;48.128;11.592;2022-09-12T05:45:25;12.60;99.90
2621;DHT22;1320;48.128;11.592;2022-09-12T05:47:53;12.70;99.90
2621;DHT22;1320;48.128;11.592;2022-09-12T05:50:19;12.70;99.90
2621;DHT22;1320;48.128;11.592;2022-09-12T05:52:45;12.80;99.90
2621;DHT22;1320;48.128;11.592;2022-09-12T05:55:11;12.80;99.90
2621;DHT22;1320;48.128;11.592;2022-09-12T05:57:37;12.90;99.90
2621;DHT22;1320;48.128;11.592;2022-09-12T06:00:03;13.00;99.90
2621;DHT22;1320;48.128;11.592;2022-09-12T06:02:30;13.00;99.90
2621;DHT22;1320;48.128;11.592;2022-09-12T06:04:56;13.10;99.90
2621;DHT22;1320;48.128;11.592;2022-09-12T06:07:23;13.20;99.90
2621;DHT22;1320;48.128;11.592;2022-09-12T06:09:49;13.30;99.90
2621;DHT22;1320;48.128;11.592;2022-09-12T06:12:14;13.30;99.90
2621;DHT22;1320;48.128;11.592;2022-09-12T06:14:40;13.40;99.90
2621;DHT22;1320;48.128;11.592;2022-09-12T06:17:06;13.40;99.90
2621;DHT22;1320;48.128;11.592;2022-09-12T06:19:31;13.50;99.90
2621;DHT22;1320;48.128;11.592;2022-09-12T06:21:57;13.60;99.90
2621;DHT22;1320;48.128;11.592;2022-09-12T06:24:23;13.60;99.90
2621;DHT22;1320;48.128;11.592;2022-09-12T06:26:49;13.70;99.90
2621;DHT22;1320;48.128;11.592;2022-09-12T06:29:17;13.70;99.90
2621;DHT22;1320;48.128;11.592;2022-09-12T06:31:43;13.80;99.90
2621;DHT22;1320;48.128;11.592;2022-09-12T06:34:11;13.90;99.90
2621;DHT22;1320;48.128;11.592;2022-09-12T06:36:45;13.90;99.90
2621;DHT22;1320;48.128;11.592;2022-09-12T06:39:18;14.00;99.90
2621;DHT22;1320;48.128;11.592;2022-09-12T06:41:45;14.10;99.90
2621;DHT22;1320;48.128;11.592;2022-09-12T06:44:20;14.20;99.90
2621;DHT22;1320;48.128;11.592;2022-09-12T06:46:46;14.30;99.90
2621;DHT22;1320;48.128;11.592;2022-09-12T06:49:12;14.40;99.90
2621;DHT22;1320;48.128;11.592;2022-09-12T06:51:38;14.50;99.90
2621;DHT22;1320;48.128;11.592;2022-09-12T06:54:06;14.70;99.90
2621;DHT22;1320;48.128;11.592;2022-09-12T06:56:32;14.80;99.90
2621;DHT22;1320;48.128;11.592;2022-09-12T06:58:58;14.90;99.90
2621;DHT22;1320;48.128;11.592;2022-09-12T07:01:29;15.00;99.90
2621;DHT22;1320;48.128;11.592;2022-09-12T07:04:00;15.10;99.90
2621;DHT22;1320;48.128;11.592;2022-09-12T07:06:29;15.20;99.90
2621;DHT22;1320;48.128;11.592;2022-09-12T07:09:00;15.30;99.90
2621;DHT22;1320;48.128;11.592;2022-09-12T07:11:34;15.40;99.90
2621;DHT22;1320;48.128;11.592;2022-09-12T07:14:02;15.50;99.90
2621;DHT22;1320;48.128;11.592;2022-09-12T07:16:28;15.70;99.90
2621;DHT22;1320;48.128;11.592;2022-09-12T07:18:59;15.80;99.90
2621;DHT22;1320;48.128;11.592;2022-09-12T07:21:26;16.00;99.90
2621;DHT22;1320;48.128;11.592;2022-09-12T07:23:51;16.20;99.90
2621;DHT22;1320;48.128;11.592;2022-09-12T07:26:20;16.40;99.90
2621;DHT22;1320;48.128;11.592;2022-09-12T07:28:50;16.60;99.90
2621;DHT22;1320;48.128;11.592;2022-09-12T07:31:18;17.00;99.90
2621;DHT22;1320;48.128;11.592;2022-09-12T07:33:44;17.40;99.90
2621;DHT22;1320;48.128;11.592;2022-09-12T07:36:14;17.90;99.90
2621;DHT22;1320;48.128;11.592;2022-09-12T07:38:41;18.30;99.90
2621;DHT22;1320;48.128;11.592;2022-09-12T07:41:12;18.90;99.90
2621;DHT22;1320;48.128;11.592;2022-09-12T07:43:38;19.50;99.90
2621;DHT22;1320;48.128;11.592;2022-09-12T07:46:04;20.20;99.90
2621;DHT22;1320;48.128;11.592;2022-09-12T07:48:29;20.70;99.90
2621;DHT22;1320;48.128;11.592;2022-09-12T07:51:04;21.20;99.90
2621;DHT22;1320;48.128;11.592;2022-09-12T07:53:38;21.60;99.90
2621;DHT22;1320;48.128;11.592;2022-09-12T07:56:06;21.90;99.90
2621;DHT22;1320;48.128;11.592;2022-09-12T07:58:34;22.30;99.90
2621;DHT22;1320;48.128;11.592;2022-09-12T08:01:11;22.70;99.90
2621;DHT22;1320;48.128;11.592;2022-09-12T08:03:41;23.00;99.90
2621;DHT22;1320;48.128;11.592;2022-09-12T08:06:17;23.30;99.90
2621;DHT22;1320;48.128;11.592;2022-09-12T08:08:48;23.60;99.90
2621;DHT22;1320;48.128;11.592;2022-09-12T08:11:16;23.90;99.90
2621;DHT22;1320;48.128;11.592;2022-09-12T08:13:43;24.20;99.90
2621;DHT22;1320;48.128;11.592;2022-09-12T08:16:29;24.60;99.90
2621;DHT22;1320;48.128;11.592;2022-09-12T08:18:55;24.80;99.70
2621;DHT22;1320;48.128;11.592;2022-09-12T08:21:23;25.00;99.30
2621;DHT22;1320;48.128;11.592;2022-09-12T08:24:00;25.30;97.80
2621;DHT22;1320;48.128;11.592;2022-09-12T08:26:27;25.50;97.50
2621;DHT22;1320;48.128;11.592;2022-09-12T08:28:53;25.60;97.30
2621;DHT22;1320;48.128;11.592;2022-09-12T08:31:20;25.70;97.50
2621;DHT22;1320;48.128;11.592;2022-09-12T08:33:46;25.80;96.00
2621;DHT22;1320;48.128;11.592;2022-09-12T08:38:40;26.00;96.20
2621;DHT22;1320;48.128;11.592;2022-09-12T08:41:24;26.30;95.70
2621;DHT22;1320;48.128;11.592;2022-09-12T08:49:09;26.80;94.20
2621;DHT22;1320;48.128;11.592;2022-09-12T08:51:38;26.80;94.10
2621;DHT22;1320;48.128;11.592;2022-09-12T08:54:08;26.90;93.50
2621;DHT22;1320;48.128;11.592;2022-09-12T08:56:40;26.90;93.50
2621;DHT22;1320;48.128;11.592;2022-09-12T08:59:07;27.20;93.10
2621;DHT22;1320;48.128;11.592;2022-09-12T09:01:43;27.50;92.90
2621;DHT22;1320;48.128;11.592;2022-09-12T09:16:01;28.00;91.20
2621;DHT22;1320;48.128;11.592;2022-09-12T09:18:33;28.30;90.60
2621;DHT22;1320;48.128;11.592;2022-09-12T09:21:22;28.40;90.60
2621;DHT22;1320;48.128;11.592;2022-09-12T09:23:56;28.20;90.50
2621;DHT22;1320;48.128;11.592;2022-09-12T09:26:50;28.50;90.00
2621;DHT22;1320;48.128;11.592;2022-09-12T09:29:23;28.60;90.10
2621;DHT22;1320;48.128;11.592;2022-09-12T09:31:52;28.70;89.70
2621;DHT22;1320;48.128;11.592;2022-09-12T09:34:24;28.70;87.90
2621;DHT22;1320;48.128;11.592;2022-09-12T09:37:08;28.50;87.90
2621;DHT22;1320;48.128;11.592;2022-09-12T09:39:50;28.30;88.10
2621;DHT22;1320;48.128;11.592;2022-09-12T09:44:52;28.20;87.80
2621;DHT22;1320;48.128;11.592;2022-09-12T09:47:20;28.20;88.30
2621;DHT22;1320;48.128;11.592;2022-09-12T09:49:46;28.00;89.40
2621;DHT22;1320;48.128;11.592;2022-09-12T09:52:15;27.90;89.30
2621;DHT22;1320;48.128;11.592;2022-09-12T09:54:48;27.80;89.00
2621;DHT22;1320;48.128;11.592;2022-09-12T09:57:39;27.70;89.80
2621;DHT22;1320;48.128;11.592;2022-09-12T10:00:31;27.70;89.90
2621;DHT22;1320;48.128;11.592;2022-09-12T10:05:32;27.80;89.90
2621;DHT22;1320;48.128;11.592;2022-09-12T10:08:08;27.70;88.50
2621;DHT22;1320;48.128;11.592;2022-09-12T10:10:34;27.80;88.90
2621;DHT22;1320;48.128;11.592;2022-09-12T10:13:12;28.00;87.00
2621;DHT22;1320;48.128;11.592;2022-09-12T10:15:55;28.20;85.90
2621;DHT22;1320;48.128;11.592;2022-09-12T10:18:42;28.20;85.20
2621;DHT22;1320;48.128;11.592;2022-09-12T10:24:25;28.00;85.30
2621;DHT22;1320;48.128;11.592;2022-09-12T10:26:57;27.90;87.50
2621;DHT22;1320;48.128;11.592;2022-09-12T10:29:32;27.90;88.40
2621;DHT22;1320;48.128;11.592;2022-09-12T10:32:02;28.10;88.20
2621;DHT22;1320;48.128;11.592;2022-09-12T10:34:37;28.30;87.30
2621;DHT22;1320;48.128;11.592;2022-09-12T10:37:09;28.40;87.60
2621;DHT22;1320;48.128;11.592;2022-09-12T10:39:40;28.40;87.50
2621;DHT22;1320;48.128;11.592;2022-09-12T10:42:14;28.30;86.90
2621;DHT22;1320;48.128;11.592;2022-09-12T10:44:52;28.20;86.50
2621;DHT22;1320;48.128;11.592;2022-09-12T10:47:20;28.20;85.50
2621;DHT22;1320;48.128;11.592;2022-09-12T10:49:46;28.10;84.60
2621;DHT22;1320;48.128;11.592;2022-09-12T10:52:21;28.00;84.30
2621;DHT22;1320;48.128;11.592;2022-09-12T10:54:48;27.90;84.30
2621;DHT22;1320;48.128;11.592;2022-09-12T10:58:07;27.80;85.50
2621;DHT22;1320;48.128;11.592;2022-09-12T11:00:25;27.70;85.10
2621;DHT22;1320;48.128;11.592;2022-09-12T11:16:26;27.10;86.80
2621;DHT22;1320;48.128;11.592;2022-09-12T11:19:28;27.30;89.00
2621;DHT22;1320;48.128;11.592;2022-09-12T11:27:31;27.80;88.20
2621;DHT22;1320;48.128;11.592;2022-09-12T11:30:10;27.80;91.20
2621;DHT22;1320;48.128;11.592;2022-09-12T11:35:23;27.80;90.90
2621;DHT22;1320;48.128;11.592;2022-09-12T11:40:49;27.90;91.00
2621;DHT22;1320;48.128;11.592;2022-09-12T11:43:33;28.00;87.20
2621;DHT22;1320;48.128;11.592;2022-09-12T11:46:13;28.00;84.40
2621;DHT22;1320;48.128;11.592;2022-09-12T11:52:00;28.00;85.20
2621;DHT22;1320;48.128;11.592;2022-09-12T11:54:38;27.90;84.30
2621;DHT22;1320;48.128;11.592;2022-09-12T11:57:16;27.80;84.10
2621;DHT22;1320;48.128;11.592;2022-09-12T12:02:56;27.60;85.90
2621;DHT22;1320;48.128;11.592;2022-09-12T12:05:28;27.40;87.10
2621;DHT22;1320;48.128;11.592;2022-09-12T12:08:05;27.50;86.30
2621;DHT22;1320;48.128;11.592;2022-09-12T12:13:21;27.60;84.90
2621;DHT22;1320;48.128;11.592;2022-09-12T12:15:54;27.70;85.00
2621;DHT22;1320;48.128;11.592;2022-09-12T12:18:23;27.60;85.30
2621;DHT22;1320;48.128;11.592;2022-09-12T12:20:50;27.70;85.20
2621;DHT22;1320;48.128;11.592;2022-09-12T12:23:31;27.90;84.30
2621;DHT22;1320;48.128;11.592;2022-09-12T12:25:59;28.00;84.60
2621;DHT22;1320;48.128;11.592;2022-09-12T12:28:56;28.00;84.90
2621;DHT22;1320;48.128;11.592;2022-09-12T12:31:22;28.00;84.90
2621;DHT22;1320;48.128;11.592;2022-09-12T12:36:30;27.90;83.70
2621;DHT22;1320;48.128;11.592;2022-09-12T12:38:58;28.00;83.60
2621;DHT22;1320;48.128;11.592;2022-09-12T12:43:51;28.00;84.10
2621;DHT22;1320;48.128;11.592;2022-09-12T12:49:08;28.20;82.10
2621;DHT22;1320;48.128;11.592;2022-09-12T12:54:48;28.40;81.80
2621;DHT22;1320;48.128;11.592;2022-09-12T13:05:45;28.30;80.20
2621;DHT22;1320;48.128;11.592;2022-09-12T13:10:52;28.40;81.30
2621;DHT22;1320;48.128;11.592;2022-09-12T13:13:25;28.40;79.80
2621;DHT22;1320;48.128;11.592;2022-09-12T13:15:52;28.40;80.30
2621;DHT22;1320;48.128;11.592;2022-09-12T13:23:26;28.60;78.50
2621;DHT22;1320;48.128;11.592;2022-09-12T13:25:57;28.60;78.50
2621;DHT22;1320;48.128;11.592;2022-09-12T13:28:24;28.70;80.00
2621;DHT22;1320;48.128;11.592;2022-09-12T13:30:55;28.60;78.10
2621;DHT22;1320;48.128;11.592;2022-09-12T13:33:42;28.50;78.80
2621;DHT22;1320;48.128;11.592;2022-09-12T13:39:16;28.70;78.60
2621;DHT22;1320;48.128;11.592;2022-09-12T13:47:20;28.80;77.90
2621;DHT22;1320;48.128;11.592;2022-09-12T13:49:49;28.80;77.90
2621;DHT22;1320;48.128;11.592;2022-09-12T13:52:23;28.90;78.50
2621;DHT22;1320;48.128;11.592;2022-09-12T13:54:52;29.00;78.10
2621;DHT22;1320;48.128;11.592;2022-09-12T13:59:54;29.20;76.70
2621;DHT22;1320;48.128;11.592;2022-09-12T14:02:23;29.30;76.90
2621;DHT22;1320;48.128;11.592;2022-09-12T14:04:51;29.40;76.00
2621;DHT22;1320;48.128;11.592;2022-09-12T14:07:58;29.40;76.00
2621;DHT22;1320;48.128;11.592;2022-09-12T14:12:57;29.50;76.10
2621;DHT22;1320;48.128;11.592;2022-09-12T14:15:28;29.60;75.90
2621;DHT22;1320;48.128;11.592;2022-09-12T14:18:00;29.80;75.60
2621;DHT22;1320;48.128;11.592;2022-09-12T14:20:30;30.00;74.50
2621;DHT22;1320;48.128;11.592;2022-09-12T14:23:18;30.10;73.20
2621;DHT22;1320;48.128;11.592;2022-09-12T14:25:46;30.20;73.40
2621;DHT22;1320;48.128;11.592;2022-09-12T14:28:15;30.30;73.20
2621;DHT22;1320;48.128;11.592;2022-09-12T14:31:06;30.50;73.10
2621;DHT22;1320;48.128;11.592;2022-09-12T14:33:55;30.50;72.60
2621;DHT22;1320;48.128;11.592;2022-09-12T14:36:32;30.50;72.50
2621;DHT22;1320;48.128;11.592;2022-09-12T14:39:02;30.60;72.80
2621;DHT22;1320;48.128;11.592;2022-09-12T14:43:58;30.70;72.70
2621;DHT22;1320;48.128;11.592;2022-09-12T14:46:35;30.60;71.90
2621;DHT22;1320;48.128;11.592;2022-09-12T14:49:15;30.50;73.70
2621;DHT22;1320;48.128;11.592;2022-09-12T14:51:56;30.30;72.60
2621;DHT22;1320;48.128;11.592;2022-09-12T14:57:04;30.00;73.20
2621;DHT22;1320;48.128;11.592;2022-09-12T15:07:34;29.80;73.40
2621;DHT22;1320;48.128;11.592;2022-09-12T15:10:30;29.80;73.10
2621;DHT22;1320;48.128;11.592;2022-09-12T15:15:36;29.60;72.20
2621;DHT22;1320;48.128;11.592;2022-09-12T15:18:01;29.60;72.60
2621;DHT22;1320;48.128;11.592;2022-09-12T15:20:27;29.60;72.90
2621;DHT22;1320;48.128;11.592;2022-09-12T15:22:53;29.60;72.70
2621;DHT22;1320;48.128;11.592;2022-09-12T15:25:19;29.50;72.80
2621;DHT22;1320;48.128;11.592;2022-09-12T15:27:45;29.60;72.60
2621;DHT22;1320;48.128;11.592;2022-09-12T15:30:12;29.80;73.10
2621;DHT22;1320;48.128;11.592;2022-09-12T15:32:39;30.10;72.90
2621;DHT22;1320;48.128;11.592;2022-09-12T15:35:21;30.30;72.20
2621;DHT22;1320;48.128;11.592;2022-09-12T15:37:48;30.50;72.60
2621;DHT22;1320;48.128;11.592;2022-09-12T15:40:14;30.60;72.40
2621;DHT22;1320;48.128;11.592;2022-09-12T15:42:40;30.70;72.50
2621;DHT22;1320;48.128;11.592;2022-09-12T15:45:21;30.80;72.30
2621;DHT22;1320;48.128;11.592;2022-09-12T15:47:47;31.10;71.90
2621;DHT22;1320;48.128;11.592;2022-09-12T15:50:13;31.40;71.30
2621;DHT22;1320;48.128;11.592;2022-09-12T15:52:39;31.50;70.60
2621;DHT22;1320;48.128;11.592;2022-09-12T15:57:45;32.00;69.60
2621;DHT22;1320;48.128;11.592;2022-09-12T16:00:13;32.10;68.80
2621;DHT22;1320;48.128;11.592;2022-09-12T16:02:38;32.30;68.40
2621;DHT22;1320;48.128;11.592;2022-09-12T16:05:05;32.50;68.60
2621;DHT22;1320;48.128;11.592;2022-09-12T16:07:31;32.70;70.40
2621;DHT22;1320;48.128;11.592;2022-09-12T16:09:57;33.10;79.00
2621;DHT22;1320;48.128;11.592;2022-09-12T16:12:22;33.30;79.90
2621;DHT22;1320;48.128;11.592;2022-09-12T16:14:48;33.40;80.30
2621;DHT22;1320;48.128;11.592;2022-09-12T16:17:13;33.60;78.30
2621;DHT22;1320;48.128;11.592;2022-09-12T16:19:39;33.70;78.30
2621;DHT22;1320;48.128;11.592;2022-09-12T16:22:05;33.80;78.60
2621;DHT22;1320;48.128;11.592;2022-09-12T16:24:30;33.80;79.90
2621;DHT22;1320;48.128;11.592;2022-09-12T16:26:56;33.90;79.50
2621;DHT22;1320;48.128;11.592;2022-09-12T16:29:22;33.80;82.10
2621;DHT22;1320;48.128;11.592;2022-09-12T16:31:47;33.60;83.10
2621;DHT22;1320;48.128;11.592;2022-09-12T16:34:13;33.60;81.40
2621;DHT22;1320;48.128;11.592;2022-09-12T16:36:39;33.50;79.50
2621;DHT22;1320;48.128;11.592;2022-09-12T16:39:04;33.50;75.00
2621;DHT22;1320;48.128;11.592;2022-09-12T16:41:30;33.40;74.80
2621;DHT22;1320;48.128;11.592;2022-09-12T16:43:56;33.20;75.00
2621;DHT22;1320;48.128;11.592;2022-09-12T16:46:26;32.80;74.90
2621;DHT22;1320;48.128;11.592;2022-09-12T16:48:54;32.10;77.30
2621;DHT22;1320;48.128;11.592;2022-09-12T16:51:32;31.40;80.10
2621;DHT22;1320;48.128;11.592;2022-09-12T16:53:58;30.50;73.90
2621;DHT22;1320;48.128;11.592;2022-09-12T16:56:24;29.80;81.90
2621;DHT22;1320;48.128;11.592;2022-09-12T16:58:50;29.10;75.50
2621;DHT22;1320;48.128;11.592;2022-09-12T17:01:21;28.40;73.40
2621;DHT22;1320;48.128;11.592;2022-09-12T17:03:50;27.70;75.00
2621;DHT22;1320;48.128;11.592;2022-09-12T17:06:17;27.10;80.80
2621;DHT22;1320;48.128;11.592;2022-09-12T17:08:46;26.70;77.40
2621;DHT22;1320;48.128;11.592;2022-09-12T17:11:15;26.30;78.80
2621;DHT22;1320;48.128;11.592;2022-09-12T17:13:45;25.90;80.20
2621;DHT22;1320;48.128;11.592;2022-09-12T17:16:12;25.60;81.00
2621;DHT22;1320;48.128;11.592;2022-09-12T17:18:38;25.30;82.30
2621;DHT22;1320;48.128;11.592;2022-09-12T17:21:08;25.00;83.70
2621;DHT22;1320;48.128;11.592;2022-09-12T17:23:35;24.70;84.10
2621;DHT22;1320;48.128;11.592;2022-09-12T17:26:01;24.60;85.00
2621;DHT22;1320;48.128;11.592;2022-09-12T17:28:27;24.40;85.80
2621;DHT22;1320;48.128;11.592;2022-09-12T17:30:57;24.20;90.60
2621;DHT22;1320;48.128;11.592;2022-09-12T17:33:23;24.00;86.90
2621;DHT22;1320;48.128;11.592;2022-09-12T17:35:49;23.90;87.90
2621;DHT22;1320;48.128;11.592;2022-09-12T17:38:15;23.70;88.40
2621;DHT22;1320;48.128;11.592;2022-09-12T17:40:41;23.60;92.70
2621;DHT22;1320;48.128;11.592;2022-09-12T17:43:07;23.50;89.40
2621;DHT22;1320;48.128;11.592;2022-09-12T17:45:33;23.30;90.10
2621;DHT22;1320;48.128;11.592;2022-09-12T17:47:59;23.30;90.30
2621;DHT22;1320;48.128;11.592;2022-09-12T17:50:26;23.10;90.60
2621;DHT22;1320;48.128;11.592;2022-09-12T17:52:52;23.10;90.80
2621;DHT22;1320;48.128;11.592;2022-09-12T17:55:19;22.90;90.90
2621;DHT22;1320;48.128;11.592;2022-09-12T17:57:45;22.80;91.00
2621;DHT22;1320;48.128;11.592;2022-09-12T18:00:11;22.70;91.30
2621;DHT22;1320;48.128;11.592;2022-09-12T18:02:37;22.70;91.50
2621;DHT22;1320;48.128;11.592;2022-09-12T18:05:03;22.60;91.60
2621;DHT22;1320;48.128;11.592;2022-09-12T18:07:31;22.50;91.80
2621;DHT22;1320;48.128;11.592;2022-09-12T18:09:56;22.50;91.80
2621;DHT22;1320;48.128;11.592;2022-09-12T18:12:23;22.40;92.00
2621;DHT22;1320;48.128;11.592;2022-09-12T18:14:49;22.30;92.10
2621;DHT22;1320;48.128;11.592;2022-09-12T18:17:15;22.20;92.20
2621;DHT22;1320;48.128;11.592;2022-09-12T18:19:41;22.20;92.50
2621;DHT22;1320;48.128;11.592;2022-09-12T18:22:06;22.10;92.70
2621;DHT22;1320;48.128;11.592;2022-09-12T18:24:34;22.10;93.00
2621;DHT22;1320;48.128;11.592;2022-09-12T18:27:00;22.00;93.10
2621;DHT22;1320;48.128;11.592;2022-09-12T18:29:26;21.90;93.20
2621;DHT22;1320;48.128;11.592;2022-09-12T18:31:52;21.90;93.40
2621;DHT22;1320;48.128;11.592;2022-09-12T18:34:18;21.80;93.50
2621;DHT22;1320;48.128;11.592;2022-09-12T18:36:48;21.80;93.70
2621;DHT22;1320;48.128;11.592;2022-09-12T18:39:15;21.70;93.90
2621;DHT22;1320;48.128;11.592;2022-09-12T18:41:42;21.70;94.10
2621;DHT22;1320;48.128;11.592;2022-09-12T18:44:09;21.60;94.10
2621;DHT22;1320;48.128;11.592;2022-09-12T18:46:36;21.60;94.30
2621;DHT22;1320;48.128;11.592;2022-09-12T18:49:01;21.50;94.50
2621;DHT22;1320;48.128;11.592;2022-09-12T18:51:30;21.50;94.70
2621;DHT22;1320;48.128;11.592;2022-09-12T18:54:04;21.40;95.00